Wetterdaten: Woche 07.04.14 - 13.04.14 (KW15)
Datum Zeit Temp. A. Feuchte A. Luftdruck Regen Wind Richtung Taupunkt Windchill Windben
07.04.2014 00:00 13,2 C 76 % 1018,6 hPa 0,0 l/m 4,7 km/h N 9,1 C 13,2 C 12,5 km/h
07.04.2014 01:00 12,9 C 78 % 1018,7 hPa 0,0 l/m 2,7 km/h N 9,0 C 12,9 C 8,0 km/h
07.04.2014 02:00 12,1 C 79 % 1018,7 hPa 0,0 l/m 0,3 km/h N 8,6 C 12,1 C 5,2 km/h
07.04.2014 03:00 11,0 C 82 % 1018,7 hPa 0,0 l/m 0,5 km/h N 8,0 C 11,0 C 4,4 km/h
07.04.2014 04:00 10,8 C 83 % 1018,8 hPa 0,0 l/m 0,6 km/h N 8,1 C 10,8 C 4,8 km/h
07.04.2014 05:00 10,4 C 83 % 1018,9 hPa 0,0 l/m 0,0 km/h N 7,6 C 10,4 C 1,6 km/h
07.04.2014 06:00 8,7 C 83 % 1019,1 hPa 0,0 l/m 0,0 km/h N 5,9 C 8,7 C 0,0 km/h
07.04.2014 07:00 8,2 C 83 % 1019,6 hPa 0,0 l/m 0,1 km/h N 5,5 C 8,2 C 2,0 km/h
07.04.2014 08:00 10,8 C 80 % 1019,7 hPa 0,0 l/m 1,6 km/h N 7,5 C 10,8 C 6,0 km/h
07.04.2014 09:00 14,4 C 78 % 1019,7 hPa 0,0 l/m 2,9 km/h N 10,5 C 14,4 C 12,5 km/h
07.04.2014 10:00 16,9 C 64 % 1019,5 hPa 0,0 l/m 5,6 km/h N 10,1 C 16,9 C 16,5 km/h
07.04.2014 11:00 18,3 C 58 % 1019,3 hPa 0,0 l/m 5,2 km/h N 9,7 C 18,3 C 14,1 km/h
07.04.2014 12:00 19,7 C 52 % 1019,0 hPa 0,0 l/m 6,0 km/h N 9,6 C 19,7 C 18,5 km/h
07.04.2014 13:00 19,7 C 48 % 1018,8 hPa 0,0 l/m 4,9 km/h N 8,3 C 19,7 C 16,1 km/h
07.04.2014 14:00 20,4 C 46 % 1018,3 hPa 0,0 l/m 3,5 km/h N 8,3 C 20,4 C 12,5 km/h
07.04.2014 15:00 20,4 C 46 % 1017,8 hPa 0,0 l/m 4,3 km/h N 8,3 C 20,4 C 13,7 km/h
07.04.2014 16:00 21,0 C 45 % 1017,1 hPa 0,0 l/m 2,6 km/h N 8,6 C 21,0 C 10,9 km/h
07.04.2014 17:00 20,8 C 45 % 1016,8 hPa 0,0 l/m 1,2 km/h N 8,3 C 20,8 C 6,8 km/h
07.04.2014 18:00 20,4 C 46 % 1016,4 hPa 0,0 l/m 1,8 km/h N 8,2 C 20,4 C 8,1 km/h
07.04.2014 19:00 19,2 C 51 % 1016,5 hPa 0,0 l/m 1,6 km/h N 8,8 C 19,2 C 5,2 km/h
07.04.2014 20:00 15,9 C 61 % 1016,9 hPa 0,0 l/m 0,0 km/h N 8,3 C 15,9 C 0,0 km/h
07.04.2014 21:00 14,7 C 68 % 1016,7 hPa 0,0 l/m 1,7 km/h N 8,9 C 14,7 C 6,0 km/h
07.04.2014 22:00 15,5 C 67 % 1016,4 hPa 0,0 l/m 1,8 km/h N 9,3 C 15,5 C 5,6 km/h
07.04.2014 23:00 13,2 C 71 % 1016,2 hPa 0,0 l/m 0,1 km/h N 8,1 C 13,2 C 2,0 km/h
08.04.2014 00:00 11,9 C 78 % 1015,7 hPa 0,0 l/m 0,0 km/h N 8,2 C 11,9 C 0,8 km/h
08.04.2014 01:00 11,2 C 80 % 1015,2 hPa 0,0 l/m 0,2 km/h N 7,9 C 11,2 C 1,6 km/h
08.04.2014 02:00 10,3 C 83 % 1014,8 hPa 0,0 l/m 0,2 km/h N 7,5 C 10,3 C 2,0 km/h
08.04.2014 03:00 9,3 C 83 % 1014,4 hPa 0,0 l/m 0,1 km/h N 6,6 C 9,3 C 1,2 km/h
08.04.2014 04:00 8,1 C 84 % 1014,2 hPa 0,0 l/m 0,0 km/h N 5,4 C 8,1 C 0,0 km/h
08.04.2014 05:00 7,4 C 83 % 1013,9 hPa 0,0 l/m 0,0 km/h N 4,7 C 7,4 C 0,4 km/h
08.04.2014 06:00 7,0 C 83 % 1014,0 hPa 0,0 l/m 0,0 km/h N 4,3 C 7,0 C 0,0 km/h
08.04.2014 07:00 8,0 C 80 % 1014,2 hPa 0,0 l/m 0,0 km/h N 4,7 C 8,0 C 0,8 km/h
08.04.2014 08:00 10,3 C 78 % 1014,3 hPa 0,0 l/m 0,0 km/h N 6,7 C 10,3 C 0,4 km/h
08.04.2014 09:00 13,6 C 80 % 1014,0 hPa 0,0 l/m 0,4 km/h N 10,2 C 13,6 C 3,6 km/h
08.04.2014 10:00 16,8 C 69 % 1013,9 hPa 0,0 l/m 0,6 km/h N 11,0 C 16,8 C 4,0 km/h
08.04.2014 11:00 17,9 C 64 % 1013,8 hPa 0,0 l/m 0,8 km/h N 11,0 C 17,9 C 5,6 km/h
08.04.2014 12:00 21,2 C 54 % 1013,3 hPa 0,0 l/m 1,9 km/h N 11,5 C 21,2 C 8,0 km/h
08.04.2014 13:00 22,9 C 46 % 1012,8 hPa 0,0 l/m 3,0 km/h N 10,7 C 22,9 C 10,5 km/h
08.04.2014 14:00 23,0 C 44 % 1012,3 hPa 0,0 l/m 6,2 km/h N 10,1 C 22,7 C 18,9 km/h
08.04.2014 15:00 23,2 C 44 % 1011,9 hPa 0,0 l/m 11,4 km/h N 10,2 C 21,8 C 33,0 km/h
08.04.2014 16:00 21,5 C 47 % 1011,7 hPa 0,0 l/m 17,6 km/h N 9,6 C 18,6 C 39,0 km/h
08.04.2014 17:00 20,2 C 52 % 1012,0 hPa 0,0 l/m 9,4 km/h N 10,1 C 19,1 C 29,0 km/h
08.04.2014 18:00 18,4 C 58 % 1012,8 hPa 0,0 l/m 9,9 km/h N 10,0 C 16,9 C 29,0 km/h
08.04.2014 19:00 16,6 C 66 % 1013,5 hPa 1,6 l/m 10,4 km/h N 10,1 C 14,8 C 31,4 km/h
08.04.2014 20:00 13,5 C 81 % 1014,7 hPa 5,5 l/m 11,1 km/h N 10,4 C 11,0 C 28,5 km/h
08.04.2014 21:00 13,0 C 83 % 1015,5 hPa 1,6 l/m 2,8 km/h N 10,2 C 13,0 C 12,9 km/h
08.04.2014 22:00 12,5 C 80 % 1015,9 hPa 0,0 l/m 4,1 km/h N 9,1 C 12,5 C 16,1 km/h
08.04.2014 23:00 12,4 C 74 % 1017,0 hPa 0,0 l/m 6,8 km/h N 7,9 C 11,8 C 22,5 km/h
09.04.2014 00:00 12,7 C 70 % 1016,9 hPa 0,0 l/m 9,3 km/h N 7,3 C 11,0 C 25,3 km/h
09.04.2014 01:00 12,3 C 69 % 1016,6 hPa 0,0 l/m 8,9 km/h N 6,8 C 10,7 C 22,1 km/h
09.04.2014 02:00 12,1 C 67 % 1016,6 hPa 0,0 l/m 11,6 km/h N 6,1 C 9,2 C 28,6 km/h
09.04.2014 03:00 11,8 C 62 % 1016,7 hPa 0,0 l/m 11,8 km/h N 4,7 C 8,7 C 31,0 km/h
09.04.2014 04:00 11,2 C 60 % 1017,2 hPa 0,0 l/m 10,7 km/h N 3,6 C 8,6 C 25,3 km/h
09.04.2014 05:00 10,6 C 61 % 1017,5 hPa 0,0 l/m 10,4 km/h N 3,3 C 8,1 C 27,3 km/h
09.04.2014 06:00 9,9 C 63 % 1018,1 hPa 0,0 l/m 5,1 km/h N 3,1 C 9,6 C 16,9 km/h
09.04.2014 07:00 9,3 C 62 % 1019,2 hPa 0,0 l/m 8,0 km/h N 2,2 C 7,8 C 23,3 km/h
09.04.2014 08:00 9,3 C 58 % 1019,8 hPa 0,0 l/m 10,9 km/h N 1,6 C 6,3 C 27,0 km/h
09.04.2014 09:00 10,3 C 58 % 1019,5 hPa 0,0 l/m 10,9 km/h N 2,4 C 7,4 C 27,8 km/h
09.04.2014 10:00 10,8 C 57 % 1019,6 hPa 0,0 l/m 11,9 km/h N 2,7 C 7,5 C 29,4 km/h
09.04.2014 11:00 12,4 C 46 % 1019,4 hPa 0,0 l/m 14,9 km/h N 1,1 C 8,1 C 32,6 km/h
09.04.2014 12:00 12,4 C 44 % 1019,5 hPa 0,0 l/m 14,0 km/h N 0,4 C 8,5 C 31,4 km/h
09.04.2014 13:00 12,0 C 48 % 1020,0 hPa 0,0 l/m 12,3 km/h N 1,4 C 8,8 C 35,4 km/h
09.04.2014 14:00 10,8 C 54 % 1020,3 hPa 0,0 l/m 8,0 km/h N 1,9 C 9,3 C 23,8 km/h
09.04.2014 15:00 8,6 C 71 % 1020,3 hPa 2,3 l/m 4,2 km/h N 3,5 C 8,5 C 14,5 km/h
09.04.2014 16:00 9,5 C 68 % 1020,2 hPa 0,0 l/m 6,0 km/h N 3,9 C 8,5 C 19,7 km/h
09.04.2014 17:00 11,1 C 54 % 1019,6 hPa 0,0 l/m 11,9 km/h N 2,2 C 7,9 C 30,2 km/h
09.04.2014 18:00 11,4 C 49 % 1019,6 hPa 0,0 l/m 11,9 km/h N 1,1 C 8,2 C 27,4 km/h
09.04.2014 19:00 10,5 C 51 % 1019,7 hPa 0,0 l/m 7,5 km/h N 0,6 C 9,7 C 22,1 km/h
09.04.2014 20:00 10,1 C 51 % 1020,2 hPa 0,0 l/m 6,8 km/h N 0,5 C 9,8 C 22,1 km/h
09.04.2014 21:00 9,6 C 53 % 1020,4 hPa 0,0 l/m 4,8 km/h N 0,5 C 9,6 C 14,1 km/h
09.04.2014 22:00 9,5 C 52 % 1020,1 hPa 0,0 l/m 5,8 km/h N 0,2 C 9,4 C 18,1 km/h
09.04.2014 23:00 9,6 C 52 % 1019,8 hPa 0,0 l/m 6,4 km/h N 0,3 C 9,5 C 17,3 km/h
10.04.2014 00:00 9,4 C 53 % 1019,4 hPa 0,0 l/m 5,8 km/h N 0,3 C 9,3 C 18,9 km/h
10.04.2014 01:00 9,4 C 53 % 1018,9 hPa 0,0 l/m 7,8 km/h N 0,3 C 8,4 C 25,4 km/h
10.04.2014 02:00 9,4 C 54 % 1018,6 hPa 0,0 l/m 10,4 km/h N 0,7 C 6,7 C 25,3 km/h
10.04.2014 03:00 8,4 C 67 % 1018,5 hPa 0,3 l/m 5,2 km/h N 2,6 C 7,4 C 17,7 km/h
10.04.2014 04:00 8,4 C 66 % 1017,8 hPa 0,0 l/m 5,6 km/h N 2,5 C 8,1 C 19,7 km/h
10.04.2014 05:00 8,6 C 67 % 1017,2 hPa 0,0 l/m 7,1 km/h N 2,8 C 7,7 C 21,7 km/h
10.04.2014 06:00 7,8 C 73 % 1016,7 hPa 0,0 l/m 9,9 km/h N 3,2 C 5,3 C 23,7 km/h
10.04.2014 07:00 8,3 C 71 % 1016,9 hPa 0,0 l/m 11,1 km/h N 3,3 C 5,0 C 29,0 km/h
10.04.2014 08:00 8,5 C 71 % 1017,1 hPa 0,0 l/m 11,3 km/h N 3,5 C 5,2 C 29,0 km/h
10.04.2014 09:00 8,7 C 76 % 1017,1 hPa 0,3 l/m 12,0 km/h N 4,6 C 5,1 C 29,0 km/h
10.04.2014 10:00 9,6 C 70 % 1016,8 hPa 0,0 l/m 12,4 km/h N 4,5 C 6,0 C 24,2 km/h
10.04.2014 11:00 7,6 C 81 % 1017,4 hPa 4,4 l/m 12,4 km/h N 4,4 C 3,6 C 23,3 km/h
10.04.2014 12:00 7,0 C 83 % 1017,2 hPa 1,6 l/m 12,0 km/h N 4,3 C 3,1 C 29,8 km/h
10.04.2014 13:00 10,5 C 74 % 1016,3 hPa 0,0 l/m 12,7 km/h N 6,1 C 6,8 C 29,4 km/h
10.04.2014 14:00 8,8 C 79 % 1016,5 hPa 2,1 l/m 4,8 km/h N 5,3 C 8,3 C 16,1 km/h
10.04.2014 15:00 8,7 C 83 % 1016,2 hPa 4,7 l/m 6,5 km/h N 5,9 C 8,3 C 20,5 km/h
10.04.2014 16:00 8,4 C 83 % 1016,2 hPa 3,1 l/m 7,6 km/h N 5,7 C 7,3 C 22,1 km/h
10.04.2014 17:00 8,6 C 82 % 1016,4 hPa 2,1 l/m 7,5 km/h N 5,8 C 7,6 C 24,9 km/h
10.04.2014 18:00 8,4 C 84 % 1016,8 hPa 0,0 l/m 2,8 km/h N 5,9 C 8,4 C 10,9 km/h
10.04.2014 19:00 7,7 C 80 % 1017,8 hPa 0,0 l/m 6,8 km/h N 4,3 C 7,0 C 24,2 km/h
10.04.2014 20:00 7,4 C 79 % 1018,6 hPa 0,0 l/m 7,3 km/h N 4,0 C 6,7 C 21,7 km/h
10.04.2014 21:00 7,4 C 75 % 1019,3 hPa 0,0 l/m 6,8 km/h N 3,3 C 6,9 C 20,5 km/h
10.04.2014 22:00 7,3 C 75 % 1019,9 hPa 0,0 l/m 4,8 km/h N 3,1 C 7,3 C 16,9 km/h
10.04.2014 23:00 6,9 C 77 % 1020,4 hPa 0,0 l/m 5,7 km/h N 3,1 C 6,9 C 16,9 km/h
11.04.2014 00:00 6,3 C 78 % 1020,6 hPa 0,0 l/m 3,3 km/h N 2,8 C 6,3 C 11,7 km/h
11.04.2014 01:00 5,9 C 79 % 1020,5 hPa 0,3 l/m 4,0 km/h N 2,5 C 5,9 C 13,3 km/h
11.04.2014 02:00 5,2 C 80 % 1020,4 hPa 0,0 l/m 0,9 km/h N 2,0 C 5,2 C 6,0 km/h
11.04.2014 03:00 4,5 C 82 % 1020,2 hPa 0,0 l/m 0,9 km/h N 1,7 C 4,5 C 5,2 km/h
11.04.2014 04:00 4,3 C 82 % 1020,0 hPa 0,0 l/m 0,4 km/h N 1,5 C 4,3 C 4,0 km/h
11.04.2014 05:00 3,5 C 83 % 1020,0 hPa 0,0 l/m 0,5 km/h N 0,9 C 3,5 C 3,6 km/h
11.04.2014 06:00 3,4 C 84 % 1020,4 hPa 0,0 l/m 0,5 km/h N 0,9 C 3,4 C 4,8 km/h
11.04.2014 07:00 4,7 C 83 % 1020,6 hPa 0,0 l/m 3,3 km/h N 2,1 C 4,7 C 10,5 km/h
11.04.2014 08:00 6,6 C 79 % 1020,7 hPa 0,0 l/m 4,2 km/h N 3,2 C 6,6 C 14,5 km/h
11.04.2014 09:00 8,3 C 72 % 1020,9 hPa 0,0 l/m 3,4 km/h N 3,5 C 8,3 C 12,5 km/h
11.04.2014 10:00 9,4 C 67 % 1020,9 hPa 0,0 l/m 5,0 km/h N 3,6 C 9,4 C 14,5 km/h
11.04.2014 11:00 11,0 C 59 % 1020,6 hPa 0,0 l/m 3,4 km/h N 3,3 C 11,0 C 10,9 km/h
11.04.2014 12:00 11,8 C 55 % 1020,2 hPa 0,0 l/m 2,7 km/h N 3,0 C 11,8 C 11,7 km/h
11.04.2014 13:00 12,8 C 54 % 1019,5 hPa 0,0 l/m 3,6 km/h N 3,6 C 12,8 C 11,7 km/h
11.04.2014 14:00 13,1 C 51 % 1018,8 hPa 0,0 l/m 3,2 km/h N 3,2 C 13,1 C 10,9 km/h
11.04.2014 15:00 13,3 C 49 % 1018,2 hPa 0,0 l/m 4,0 km/h N 2,9 C 13,3 C 14,9 km/h
11.04.2014 16:00 13,6 C 48 % 1017,8 hPa 0,0 l/m 4,1 km/h N 2,7 C 13,6 C 14,1 km/h
11.04.2014 17:00 13,3 C 49 % 1017,5 hPa 0,0 l/m 3,4 km/h N 2,7 C 13,3 C 10,1 km/h
11.04.2014 18:00 12,9 C 49 % 1017,4 hPa 0,0 l/m 3,2 km/h N 2,3 C 12,9 C 10,9 km/h
11.04.2014 19:00 11,9 C 50 % 1017,6 hPa 0,0 l/m 0,8 km/h N 1,8 C 11,9 C 4,4 km/h
11.04.2014 20:00 9,5 C 61 % 1018,0 hPa 0,0 l/m 0,0 km/h N 2,2 C 9,5 C 0,4 km/h
11.04.2014 21:00 7,2 C 70 % 1018,3 hPa 0,0 l/m 0,0 km/h N 2,1 C 7,2 C 0,0 km/h
11.04.2014 22:00 5,8 C 75 % 1018,4 hPa 0,0 l/m 0,1 km/h N 1,7 C 5,8 C 2,8 km/h
11.04.2014 23:00 5,0 C 78 % 1018,4 hPa 0,0 l/m 0,0 km/h N 1,5 C 5,0 C 2,0 km/h
12.04.2014 00:00 4,5 C 80 % 1018,4 hPa 0,0 l/m 0,1 km/h N 1,2 C 4,5 C 2,4 km/h
12.04.2014 01:00 4,2 C 81 % 1018,0 hPa 0,0 l/m 0,2 km/h N 1,1 C 4,2 C 2,4 km/h
12.04.2014 02:00 3,8 C 82 % 1017,4 hPa 0,0 l/m 0,2 km/h N 1,0 C 3,8 C 3,2 km/h
12.04.2014 03:00 3,3 C 82 % 1017,2 hPa 0,0 l/m 0,6 km/h N 0,6 C 3,3 C 4,8 km/h
12.04.2014 04:00 3,3 C 83 % 1016,9 hPa 0,0 l/m 1,3 km/h N 0,7 C 3,3 C 5,6 km/h
12.04.2014 05:00 2,7 C 84 % 1017,1 hPa 0,0 l/m 0,0 km/h N 0,1 C 2,7 C 0,0 km/h
12.04.2014 06:00 3,2 C 84 % 1017,4 hPa 0,0 l/m 0,1 km/h N 0,8 C 3,2 C 2,4 km/h
12.04.2014 07:00 4,4 C 84 % 1017,6 hPa 0,0 l/m 0,2 km/h N 1,9 C 4,4 C 2,8 km/h
12.04.2014 08:00 5,5 C 84 % 1017,9 hPa 0,0 l/m 0,0 km/h N 3,0 C 5,5 C 0,4 km/h
12.04.2014 09:00 7,5 C 80 % 1018,2 hPa 0,0 l/m 0,1 km/h N 4,2 C 7,5 C 1,6 km/h
12.04.2014 10:00 10,6 C 66 % 1018,2 hPa 0,0 l/m 1,2 km/h N 4,5 C 10,6 C 6,4 km/h
12.04.2014 11:00 12,7 C 58 % 1018,1 hPa 0,0 l/m 2,5 km/h N 4,6 C 12,7 C 8,4 km/h
12.04.2014 12:00 14,5 C 51 % 1017,4 hPa 0,0 l/m 3,4 km/h N 4,3 C 14,5 C 11,7 km/h
12.04.2014 13:00 14,9 C 49 % 1016,8 hPa 0,0 l/m 5,8 km/h N 4,2 C 14,9 C 17,3 km/h
12.04.2014 14:00 15,5 C 47 % 1016,3 hPa 0,0 l/m 5,1 km/h N 4,3 C 15,5 C 14,1 km/h
12.04.2014 15:00 15,9 C 46 % 1015,7 hPa 0,0 l/m 4,4 km/h N 4,3 C 15,9 C 15,3 km/h
12.04.2014 16:00 15,6 C 47 % 1015,5 hPa 0,0 l/m 4,0 km/h N 4,4 C 15,6 C 13,7 km/h
12.04.2014 17:00 15,5 C 47 % 1015,2 hPa 0,0 l/m 1,3 km/h N 4,2 C 15,5 C 7,2 km/h
12.04.2014 18:00 15,0 C 49 % 1015,0 hPa 0,0 l/m 0,4 km/h N 4,3 C 15,0 C 4,4 km/h
12.04.2014 19:00 13,7 C 53 % 1015,3 hPa 0,0 l/m 0,1 km/h N 4,3 C 13,7 C 1,2 km/h
12.04.2014 20:00 10,8 C 63 % 1015,9 hPa 0,0 l/m 0,0 km/h N 4,0 C 10,8 C 0,0 km/h
12.04.2014 21:00 8,4 C 72 % 1016,2 hPa 0,0 l/m 0,0 km/h N 3,6 C 8,4 C 0,0 km/h
12.04.2014 22:00 7,3 C 76 % 1016,3 hPa 0,0 l/m 0,0 km/h N 3,3 C 7,3 C 0,8 km/h
12.04.2014 23:00 6,8 C 77 % 1016,3 hPa 0,0 l/m 0,0 km/h N 3,0 C 6,8 C 0,4 km/h
13.04.2014 00:00 6,4 C 78 % 1016,2 hPa 0,0 l/m 0,0 km/h N 2,8 C 6,4 C 0,0 km/h
13.04.2014 01:00 6,0 C 79 % 1015,8 hPa 0,0 l/m 0,1 km/h N 2,6 C 6,0 C 1,2 km/h
13.04.2014 02:00 5,5 C 81 % 1015,3 hPa 0,0 l/m 0,0 km/h N 2,5 C 5,5 C 1,6 km/h
13.04.2014 03:00 5,9 C 82 % 1014,8 hPa 0,0 l/m 0,0 km/h N 3,1 C 5,9 C 0,0 km/h
13.04.2014 04:00 6,5 C 83 % 1014,8 hPa 0,0 l/m 0,2 km/h N 3,7 C 6,5 C 2,8 km/h
13.04.2014 05:00 6,6 C 83 % 1014,4 hPa 0,0 l/m 0,1 km/h N 3,9 C 6,6 C 1,6 km/h
13.04.2014 06:00 6,5 C 83 % 1014,8 hPa 0,0 l/m 0,3 km/h N 3,9 C 6,5 C 2,8 km/h
13.04.2014 07:00 6,7 C 84 % 1015,3 hPa 0,0 l/m 0,1 km/h N 4,1 C 6,7 C 1,6 km/h
13.04.2014 08:00 8,6 C 82 % 1015,7 hPa 0,0 l/m 0,2 km/h N 5,7 C 8,6 C 1,6 km/h
13.04.2014 09:00 11,1 C 74 % 1016,1 hPa 0,0 l/m 0,8 km/h N 6,6 C 11,1 C 6,0 km/h
13.04.2014 10:00 12,7 C 69 % 1016,3 hPa 0,0 l/m 6,8 km/h N 7,1 C 12,3 C 18,5 km/h
13.04.2014 11:00 12,4 C 74 % 1016,4 hPa 0,0 l/m 8,0 km/h N 7,9 C 11,4 C 20,9 km/h
13.04.2014 12:00 12,3 C 74 % 1016,5 hPa 0,0 l/m 7,8 km/h N 7,7 C 11,2 C 21,7 km/h
13.04.2014 13:00 12,3 C 76 % 1016,5 hPa 0,0 l/m 5,2 km/h N 8,1 C 12,1 C 18,9 km/h
13.04.2014 14:00 13,3 C 70 % 1016,1 hPa 0,0 l/m 9,8 km/h N 7,9 C 11,4 C 23,3 km/h
13.04.2014 15:00 14,2 C 66 % 1015,8 hPa 0,0 l/m 8,0 km/h N 8,0 C 13,2 C 21,3 km/h
13.04.2014 16:00 13,5 C 66 % 1015,5 hPa 0,0 l/m 8,8 km/h N 7,2 C 12,1 C 24,1 km/h
13.04.2014 17:00 13,3 C 70 % 1015,5 hPa 0,0 l/m 6,1 km/h N 8,0 C 13,2 C 19,7 km/h
13.04.2014 18:00 13,6 C 70 % 1015,6 hPa 0,0 l/m 7,5 km/h N 8,1 C 12,7 C 21,3 km/h
13.04.2014 19:00 13,1 C 71 % 1015,7 hPa 0,0 l/m 3,0 km/h N 7,9 C 13,1 C 14,5 km/h
13.04.2014 20:00 12,7 C 72 % 1015,8 hPa 0,0 l/m 3,0 km/h N 7,8 C 12,7 C 12,9 km/h
13.04.2014 21:00 11,7 C 74 % 1015,7 hPa 0,0 l/m 0,7 km/h N 7,2 C 11,7 C 5,6 km/h
13.04.2014 22:00 10,3 C 77 % 1015,6 hPa 0,0 l/m 0,1 km/h N 6,4 C 10,3 C 0,8 km/h
13.04.2014 23:00 8,8 C 79 % 1015,5 hPa 0,0 l/m 0,0 km/h N 5,3 C 8,8 C 0,0 km/h
Min-Datum _ 12.04.14 09.04.14 08.04.14 - 07.04.14 - 09.04.14 10.04.14 07.04.14
_ Min-Zeit 05:30 11:45 16:00 - 02:30 - 11:45 12:15 05:45
Minimum _ 2,5 C 41 % 1011,5 hPa - 0,0 km/h - -0,3 C 2,1 C 0,0 km/h
Max-Datum _ 08.04.14 07.04.14 11.04.14 08.04.14 08.04.14 - 08.04.14 08.04.14 08.04.14
_ Max-Zeit 15:00 07:15 10:00 20:00 16:45 - 12:15 13:45 16:45
Maximum _ 23,4 C 84 % 1021,0 hPa 5,5 l/m 20,4 km/h
N
- 11,6 C 23,1 C 43,5 km/h
N
Durchschnitt _ 11,0 C 68 % 1017,3 hPa #29,6 l/m 4,4 km/h N 5,0 C 10,3 C 13,1 km/h